sensor_id;sensor_type;location;lat;lon;timestamp;temperature;humidity
75010;DHT22;63564;46.840;18.336;2023-08-12T00:00:10;14.94;86.18
75010;DHT22;63564;46.840;18.336;2023-08-12T00:03:14;14.81;86.87
75010;DHT22;63564;46.840;18.336;2023-08-12T00:06:14;14.81;86.43
75010;DHT22;63564;46.840;18.336;2023-08-12T00:09:14;14.87;85.61
75010;DHT22;63564;46.840;18.336;2023-08-12T00:12:15;14.84;86.08
75010;DHT22;63564;46.840;18.336;2023-08-12T00:15:15;14.84;86.28
75010;DHT22;63564;46.840;18.336;2023-08-12T00:18:16;14.72;89.02
75010;DHT22;63564;46.840;18.336;2023-08-12T00:21:17;14.43;90.44
75010;DHT22;63564;46.840;18.336;2023-08-12T00:24:17;14.22;90.71
75010;DHT22;63564;46.840;18.336;2023-08-12T00:27:18;13.85;92.16
75010;DHT22;63564;46.840;18.336;2023-08-12T00:30:18;13.77;92.85
75010;DHT22;63564;46.840;18.336;2023-08-12T00:33:19;13.80;92.78
75010;DHT22;63564;46.840;18.336;2023-08-12T00:36:19;13.85;92.34
75010;DHT22;63564;46.840;18.336;2023-08-12T00:39:19;13.78;92.74
75010;DHT22;63564;46.840;18.336;2023-08-12T00:42:20;13.74;92.75
75010;DHT22;63564;46.840;18.336;2023-08-12T00:45:20;13.64;92.75
75010;DHT22;63564;46.840;18.336;2023-08-12T00:48:21;13.69;92.77
75010;DHT22;63564;46.840;18.336;2023-08-12T00:51:21;13.77;92.08
75010;DHT22;63564;46.840;18.336;2023-08-12T00:54:22;13.80;92.46
75010;DHT22;63564;46.840;18.336;2023-08-12T00:57:24;13.85;92.11
75010;DHT22;63564;46.840;18.336;2023-08-12T01:00:24;13.87;92.36
75010;DHT22;63564;46.840;18.336;2023-08-12T01:03:25;13.90;92.14
75010;DHT22;63564;46.840;18.336;2023-08-12T01:06:25;13.90;91.83
75010;DHT22;63564;46.840;18.336;2023-08-12T01:09:26;13.81;92.48
75010;DHT22;63564;46.840;18.336;2023-08-12T01:12:36;13.73;92.58
75010;DHT22;63564;46.840;18.336;2023-08-12T01:15:37;13.74;92.59
75010;DHT22;63564;46.840;18.336;2023-08-12T01:18:38;13.83;91.89
75010;DHT22;63564;46.840;18.336;2023-08-12T01:21:41;13.87;91.89
75010;DHT22;63564;46.840;18.336;2023-08-12T01:24:44;13.78;91.99
75010;DHT22;63564;46.840;18.336;2023-08-12T01:27:45;13.70;92.44
75010;DHT22;63564;46.840;18.336;2023-08-12T01:31:13;13.59;93.29
75010;DHT22;63564;46.840;18.336;2023-08-12T01:34:20;13.67;93.02
75010;DHT22;63564;46.840;18.336;2023-08-12T01:37:28;13.62;92.86
75010;DHT22;63564;46.840;18.336;2023-08-12T01:40:29;13.52;93.00
75010;DHT22;63564;46.840;18.336;2023-08-12T01:43:30;13.47;93.84
75010;DHT22;63564;46.840;18.336;2023-08-12T01:46:31;13.30;93.61
75010;DHT22;63564;46.840;18.336;2023-08-12T01:49:32;13.22;94.03
75010;DHT22;63564;46.840;18.336;2023-08-12T01:52:32;13.23;93.26
75010;DHT22;63564;46.840;18.336;2023-08-12T01:55:32;13.16;94.06
75010;DHT22;63564;46.840;18.336;2023-08-12T01:58:33;13.12;94.03
75010;DHT22;63564;46.840;18.336;2023-08-12T02:01:33;13.19;93.53
75010;DHT22;63564;46.840;18.336;2023-08-12T02:04:34;13.27;93.05
75010;DHT22;63564;46.840;18.336;2023-08-12T02:07:34;13.35;92.75
75010;DHT22;63564;46.840;18.336;2023-08-12T02:10:35;13.33;92.62
75010;DHT22;63564;46.840;18.336;2023-08-12T02:13:35;13.27;92.53
75010;DHT22;63564;46.840;18.336;2023-08-12T02:16:35;13.25;92.70
75010;DHT22;63564;46.840;18.336;2023-08-12T02:19:36;13.32;92.03
75010;DHT22;63564;46.840;18.336;2023-08-12T02:22:36;13.35;91.89
75010;DHT22;63564;46.840;18.336;2023-08-12T02:25:37;13.36;91.93
75010;DHT22;63564;46.840;18.336;2023-08-12T02:28:37;13.25;92.45
75010;DHT22;63564;46.840;18.336;2023-08-12T02:31:37;13.23;92.34
75010;DHT22;63564;46.840;18.336;2023-08-12T02:34:38;13.14;93.03
75010;DHT22;63564;46.840;18.336;2023-08-12T02:37:38;13.05;92.98
75010;DHT22;63564;46.840;18.336;2023-08-12T02:40:39;13.09;92.97
75010;DHT22;63564;46.840;18.336;2023-08-12T02:43:40;13.04;93.24
75010;DHT22;63564;46.840;18.336;2023-08-12T02:46:40;12.98;93.52
75010;DHT22;63564;46.840;18.336;2023-08-12T02:49:41;12.95;93.58
75010;DHT22;63564;46.840;18.336;2023-08-12T02:52:41;12.94;93.74
75010;DHT22;63564;46.840;18.336;2023-08-12T02:55:41;12.95;93.68
75010;DHT22;63564;46.840;18.336;2023-08-12T02:58:42;12.84;94.53
75010;DHT22;63564;46.840;18.336;2023-08-12T03:01:42;12.77;94.58
75010;DHT22;63564;46.840;18.336;2023-08-12T03:04:43;12.73;94.67
75010;DHT22;63564;46.840;18.336;2023-08-12T03:07:43;12.76;94.58
75010;DHT22;63564;46.840;18.336;2023-08-12T03:10:44;12.73;95.08
75010;DHT22;63564;46.840;18.336;2023-08-12T03:13:45;12.71;94.76
75010;DHT22;63564;46.840;18.336;2023-08-12T03:16:45;12.73;94.56
75010;DHT22;63564;46.840;18.336;2023-08-12T03:19:46;12.77;94.19
75010;DHT22;63564;46.840;18.336;2023-08-12T03:22:46;12.74;93.99
75010;DHT22;63564;46.840;18.336;2023-08-12T03:25:47;12.68;94.28
75010;DHT22;63564;46.840;18.336;2023-08-12T03:28:48;12.70;94.42
75010;DHT22;63564;46.840;18.336;2023-08-12T03:31:48;12.67;94.18
75010;DHT22;63564;46.840;18.336;2023-08-12T03:34:49;12.65;94.38
75010;DHT22;63564;46.840;18.336;2023-08-12T03:37:49;12.81;93.50
75010;DHT22;63564;46.840;18.336;2023-08-12T03:40:51;12.81;93.53
75010;DHT22;63564;46.840;18.336;2023-08-12T03:43:51;12.68;94.20
75010;DHT22;63564;46.840;18.336;2023-08-12T03:46:52;12.63;94.99
75010;DHT22;63564;46.840;18.336;2023-08-12T03:49:52;12.57;95.14
75010;DHT22;63564;46.840;18.336;2023-08-12T03:52:53;12.54;95.53
75010;DHT22;63564;46.840;18.336;2023-08-12T03:55:53;12.63;95.35
75010;DHT22;63564;46.840;18.336;2023-08-12T03:58:53;12.73;94.41
75010;DHT22;63564;46.840;18.336;2023-08-12T04:01:54;12.74;94.14
75010;DHT22;63564;46.840;18.336;2023-08-12T04:04:54;12.76;94.28
75010;DHT22;63564;46.840;18.336;2023-08-12T04:07:55;12.78;94.67
75010;DHT22;63564;46.840;18.336;2023-08-12T04:10:55;12.80;94.41
75010;DHT22;63564;46.840;18.336;2023-08-12T04:13:55;12.88;94.11
75010;DHT22;63564;46.840;18.336;2023-08-12T04:16:56;13.02;93.75
75010;DHT22;63564;46.840;18.336;2023-08-12T04:19:56;13.05;93.85
75010;DHT22;63564;46.840;18.336;2023-08-12T04:22:57;13.05;94.05
75010;DHT22;63564;46.840;18.336;2023-08-12T04:25:57;13.15;93.77
75010;DHT22;63564;46.840;18.336;2023-08-12T04:28:57;13.22;93.47
75010;DHT22;63564;46.840;18.336;2023-08-12T04:31:58;13.38;93.63
75010;DHT22;63564;46.840;18.336;2023-08-12T04:34:58;13.42;94.09
75010;DHT22;63564;46.840;18.336;2023-08-12T04:37:58;13.47;93.79
75010;DHT22;63564;46.840;18.336;2023-08-12T04:40:59;13.54;93.70
75010;DHT22;63564;46.840;18.336;2023-08-12T04:43:59;13.57;93.34
75010;DHT22;63564;46.840;18.336;2023-08-12T04:46:59;13.71;93.10
75010;DHT22;63564;46.840;18.336;2023-08-12T04:50:00;13.77;92.95
75010;DHT22;63564;46.840;18.336;2023-08-12T04:53:00;13.83;92.81
75010;DHT22;63564;46.840;18.336;2023-08-12T04:56:01;13.95;92.46
75010;DHT22;63564;46.840;18.336;2023-08-12T04:59:02;13.95;92.94
75010;DHT22;63564;46.840;18.336;2023-08-12T05:02:03;14.28;92.20
75010;DHT22;63564;46.840;18.336;2023-08-12T05:05:03;14.70;91.52
75010;DHT22;63564;46.840;18.336;2023-08-12T05:08:04;15.35;89.29
75010;DHT22;63564;46.840;18.336;2023-08-12T05:11:04;15.83;88.13
75010;DHT22;63564;46.840;18.336;2023-08-12T05:14:05;16.04;87.59
75010;DHT22;63564;46.840;18.336;2023-08-12T05:17:06;16.29;86.57
75010;DHT22;63564;46.840;18.336;2023-08-12T05:20:07;16.56;85.87
75010;DHT22;63564;46.840;18.336;2023-08-12T05:23:09;16.96;84.14
75010;DHT22;63564;46.840;18.336;2023-08-12T05:26:09;17.02;83.50
75010;DHT22;63564;46.840;18.336;2023-08-12T05:29:09;16.99;83.93
75010;DHT22;63564;46.840;18.336;2023-08-12T05:32:10;17.42;82.66
75010;DHT22;63564;46.840;18.336;2023-08-12T05:35:10;17.71;81.40
75010;DHT22;63564;46.840;18.336;2023-08-12T05:38:10;17.65;81.52
75010;DHT22;63564;46.840;18.336;2023-08-12T05:41:11;17.76;80.56
75010;DHT22;63564;46.840;18.336;2023-08-12T05:44:11;17.81;80.98
75010;DHT22;63564;46.840;18.336;2023-08-12T05:47:12;18.07;80.64
75010;DHT22;63564;46.840;18.336;2023-08-12T05:50:12;17.97;80.87
75010;DHT22;63564;46.840;18.336;2023-08-12T05:53:12;18.05;80.58
75010;DHT22;63564;46.840;18.336;2023-08-12T05:56:13;18.18;80.72
75010;DHT22;63564;46.840;18.336;2023-08-12T05:59:13;18.14;81.21
75010;DHT22;63564;46.840;18.336;2023-08-12T06:02:14;18.06;82.35
75010;DHT22;63564;46.840;18.336;2023-08-12T06:05:14;18.20;81.55
75010;DHT22;63564;46.840;18.336;2023-08-12T06:08:15;18.41;81.29
75010;DHT22;63564;46.840;18.336;2023-08-12T06:11:15;18.55;80.79
75010;DHT22;63564;46.840;18.336;2023-08-12T06:14:16;18.69;81.22
75010;DHT22;63564;46.840;18.336;2023-08-12T06:17:16;18.98;80.74
75010;DHT22;63564;46.840;18.336;2023-08-12T06:20:16;19.19;80.83
75010;DHT22;63564;46.840;18.336;2023-08-12T06:23:17;19.26;80.27
75010;DHT22;63564;46.840;18.336;2023-08-12T06:26:17;19.34;80.44
75010;DHT22;63564;46.840;18.336;2023-08-12T06:29:18;19.40;81.00
75010;DHT22;63564;46.840;18.336;2023-08-12T06:32:18;19.77;80.13
75010;DHT22;63564;46.840;18.336;2023-08-12T06:35:18;20.16;77.24
75010;DHT22;63564;46.840;18.336;2023-08-12T06:38:19;20.33;78.60
75010;DHT22;63564;46.840;18.336;2023-08-12T06:41:19;20.39;76.75
75010;DHT22;63564;46.840;18.336;2023-08-12T06:44:20;20.51;77.84
75010;DHT22;63564;46.840;18.336;2023-08-12T06:47:20;20.70;77.14
75010;DHT22;63564;46.840;18.336;2023-08-12T06:50:21;20.78;75.59
75010;DHT22;63564;46.840;18.336;2023-08-12T06:53:22;20.92;76.79
75010;DHT22;63564;46.840;18.336;2023-08-12T06:56:22;21.09;75.01
75010;DHT22;63564;46.840;18.336;2023-08-12T06:59:22;21.18;74.78
75010;DHT22;63564;46.840;18.336;2023-08-12T07:02:23;21.36;72.79
75010;DHT22;63564;46.840;18.336;2023-08-12T07:05:23;21.09;74.65
75010;DHT22;63564;46.840;18.336;2023-08-12T07:08:24;21.22;74.47
75010;DHT22;63564;46.840;18.336;2023-08-12T07:11:24;21.38;71.60
75010;DHT22;63564;46.840;18.336;2023-08-12T07:14:24;21.53;70.47
75010;DHT22;63564;46.840;18.336;2023-08-12T07:17:25;21.91;67.69
75010;DHT22;63564;46.840;18.336;2023-08-12T07:20:26;22.08;67.82
75010;DHT22;63564;46.840;18.336;2023-08-12T07:23:26;22.12;66.17
75010;DHT22;63564;46.840;18.336;2023-08-12T07:26:27;22.49;65.67
75010;DHT22;63564;46.840;18.336;2023-08-12T07:29:27;22.63;66.74
75010;DHT22;63564;46.840;18.336;2023-08-12T07:32:28;22.53;64.68
75010;DHT22;63564;46.840;18.336;2023-08-12T07:35:28;22.44;64.73
75010;DHT22;63564;46.840;18.336;2023-08-12T07:38:28;22.79;63.05
75010;DHT22;63564;46.840;18.336;2023-08-12T07:41:29;22.52;63.61
75010;DHT22;63564;46.840;18.336;2023-08-12T07:44:29;22.86;62.19
75010;DHT22;63564;46.840;18.336;2023-08-12T07:47:30;23.00;59.31
75010;DHT22;63564;46.840;18.336;2023-08-12T07:50:30;23.08;61.30
75010;DHT22;63564;46.840;18.336;2023-08-12T07:53:31;23.10;59.30
75010;DHT22;63564;46.840;18.336;2023-08-12T07:56:31;23.10;62.20
75010;DHT22;63564;46.840;18.336;2023-08-12T07:59:31;23.35;57.73
75010;DHT22;63564;46.840;18.336;2023-08-12T08:02:32;23.57;61.42
75010;DHT22;63564;46.840;18.336;2023-08-12T08:05:32;23.41;56.97
75010;DHT22;63564;46.840;18.336;2023-08-12T08:08:32;23.54;57.78
75010;DHT22;63564;46.840;18.336;2023-08-12T08:11:33;23.80;60.06
75010;DHT22;63564;46.840;18.336;2023-08-12T08:14:34;23.85;56.91
75010;DHT22;63564;46.840;18.336;2023-08-12T08:17:34;23.90;60.80
75010;DHT22;63564;46.840;18.336;2023-08-12T08:20:35;23.80;59.26
75010;DHT22;63564;46.840;18.336;2023-08-12T08:23:35;23.89;63.55
75010;DHT22;63564;46.840;18.336;2023-08-12T08:26:35;23.89;57.83
75010;DHT22;63564;46.840;18.336;2023-08-12T08:29:36;23.79;58.17
75010;DHT22;63564;46.840;18.336;2023-08-12T08:32:36;24.12;53.30
75010;DHT22;63564;46.840;18.336;2023-08-12T08:35:37;24.21;55.59
75010;DHT22;63564;46.840;18.336;2023-08-12T08:38:37;24.21;55.28
75010;DHT22;63564;46.840;18.336;2023-08-12T08:41:39;24.31;55.07
75010;DHT22;63564;46.840;18.336;2023-08-12T08:44:41;24.60;54.75
75010;DHT22;63564;46.840;18.336;2023-08-12T08:47:42;24.75;53.89
75010;DHT22;63564;46.840;18.336;2023-08-12T08:50:44;24.91;51.75
75010;DHT22;63564;46.840;18.336;2023-08-12T08:53:46;24.91;51.89
75010;DHT22;63564;46.840;18.336;2023-08-12T08:56:49;24.95;50.84
75010;DHT22;63564;46.840;18.336;2023-08-12T08:59:49;25.01;50.03
75010;DHT22;63564;46.840;18.336;2023-08-12T09:02:50;24.55;52.28
75010;DHT22;63564;46.840;18.336;2023-08-12T09:05:52;24.81;52.26
75010;DHT22;63564;46.840;18.336;2023-08-12T09:08:54;25.06;51.01
75010;DHT22;63564;46.840;18.336;2023-08-12T09:11:54;25.18;50.89
75010;DHT22;63564;46.840;18.336;2023-08-12T09:14:55;25.16;49.12
75010;DHT22;63564;46.840;18.336;2023-08-12T09:17:56;25.34;49.86
75010;DHT22;63564;46.840;18.336;2023-08-12T09:20:56;25.50;48.31
75010;DHT22;63564;46.840;18.336;2023-08-12T09:24:02;25.37;50.53
75010;DHT22;63564;46.840;18.336;2023-08-12T09:27:03;25.56;52.97
75010;DHT22;63564;46.840;18.336;2023-08-12T09:30:04;25.67;49.06
75010;DHT22;63564;46.840;18.336;2023-08-12T09:33:06;25.58;49.21
75010;DHT22;63564;46.840;18.336;2023-08-12T09:36:07;25.81;51.32
75010;DHT22;63564;46.840;18.336;2023-08-12T09:39:07;26.02;47.73
75010;DHT22;63564;46.840;18.336;2023-08-12T09:42:11;25.84;49.17
75010;DHT22;63564;46.840;18.336;2023-08-12T09:45:12;25.98;49.65
75010;DHT22;63564;46.840;18.336;2023-08-12T09:48:12;26.26;46.97
75010;DHT22;63564;46.840;18.336;2023-08-12T09:51:13;26.28;47.43
75010;DHT22;63564;46.840;18.336;2023-08-12T09:54:13;26.23;47.66
75010;DHT22;63564;46.840;18.336;2023-08-12T09:57:16;25.71;47.82
75010;DHT22;63564;46.840;18.336;2023-08-12T10:00:19;26.18;47.91
75010;DHT22;63564;46.840;18.336;2023-08-12T10:03:20;26.64;46.11
75010;DHT22;63564;46.840;18.336;2023-08-12T10:06:21;26.33;47.42
75010;DHT22;63564;46.840;18.336;2023-08-12T10:09:22;26.39;47.37
75010;DHT22;63564;46.840;18.336;2023-08-12T10:12:23;26.57;46.60
75010;DHT22;63564;46.840;18.336;2023-08-12T10:15:24;26.70;50.83
75010;DHT22;63564;46.840;18.336;2023-08-12T10:18:25;26.64;49.60
75010;DHT22;63564;46.840;18.336;2023-08-12T10:21:28;26.18;49.63
75010;DHT22;63564;46.840;18.336;2023-08-12T10:24:29;26.04;50.33
75010;DHT22;63564;46.840;18.336;2023-08-12T10:27:30;26.06;48.78
75010;DHT22;63564;46.840;18.336;2023-08-12T10:30:31;26.65;51.52
75010;DHT22;63564;46.840;18.336;2023-08-12T10:33:40;26.90;50.49
75010;DHT22;63564;46.840;18.336;2023-08-12T10:36:41;26.95;46.86
75010;DHT22;63564;46.840;18.336;2023-08-12T10:39:42;26.99;46.98
75010;DHT22;63564;46.840;18.336;2023-08-12T10:42:44;26.87;47.83
75010;DHT22;63564;46.840;18.336;2023-08-12T10:45:51;26.87;47.43
75010;DHT22;63564;46.840;18.336;2023-08-12T10:49:08;26.78;46.67
75010;DHT22;63564;46.840;18.336;2023-08-12T10:52:28;26.80;45.75
75010;DHT22;63564;46.840;18.336;2023-08-12T10:55:28;26.98;45.15
75010;DHT22;63564;46.840;18.336;2023-08-12T11:01:30;27.15;49.55
75010;DHT22;63564;46.840;18.336;2023-08-12T11:04:37;27.25;45.84
75010;DHT22;63564;46.840;18.336;2023-08-12T11:07:48;27.34;45.95
75010;DHT22;63564;46.840;18.336;2023-08-12T11:10:54;27.70;44.99
75010;DHT22;63564;46.840;18.336;2023-08-12T11:13:58;27.79;44.23
75010;DHT22;63564;46.840;18.336;2023-08-12T11:16:59;27.74;44.45
75010;DHT22;63564;46.840;18.336;2023-08-12T11:20:00;27.31;43.50
75010;DHT22;63564;46.840;18.336;2023-08-12T11:23:02;27.28;45.80
75010;DHT22;63564;46.840;18.336;2023-08-12T11:26:03;27.02;48.91
75010;DHT22;63564;46.840;18.336;2023-08-12T11:29:11;27.49;44.74
75010;DHT22;63564;46.840;18.336;2023-08-12T11:32:11;27.86;43.38
75010;DHT22;63564;46.840;18.336;2023-08-12T11:35:13;27.90;44.43
75010;DHT22;63564;46.840;18.336;2023-08-12T11:38:14;27.97;44.36
75010;DHT22;63564;46.840;18.336;2023-08-12T11:41:17;28.05;42.28
75010;DHT22;63564;46.840;18.336;2023-08-12T11:44:21;28.07;45.59
75010;DHT22;63564;46.840;18.336;2023-08-12T11:47:22;27.64;44.68
75010;DHT22;63564;46.840;18.336;2023-08-12T11:50:26;27.76;44.37
75010;DHT22;63564;46.840;18.336;2023-08-12T11:53:27;27.91;42.67
75010;DHT22;63564;46.840;18.336;2023-08-12T11:56:28;27.94;43.59
75010;DHT22;63564;46.840;18.336;2023-08-12T11:59:28;28.00;42.68
75010;DHT22;63564;46.840;18.336;2023-08-12T12:02:28;27.70;44.56
75010;DHT22;63564;46.840;18.336;2023-08-12T12:05:29;27.83;43.85
75010;DHT22;63564;46.840;18.336;2023-08-12T12:08:33;28.05;43.21
75010;DHT22;63564;46.840;18.336;2023-08-12T12:11:37;28.27;43.17
75010;DHT22;63564;46.840;18.336;2023-08-12T12:14:38;27.25;44.17
75010;DHT22;63564;46.840;18.336;2023-08-12T12:17:39;27.41;50.42
75010;DHT22;63564;46.840;18.336;2023-08-12T12:20:58;27.89;43.36
75010;DHT22;63564;46.840;18.336;2023-08-12T12:23:59;27.77;44.93
75010;DHT22;63564;46.840;18.336;2023-08-12T12:26:59;27.89;43.70
75010;DHT22;63564;46.840;18.336;2023-08-12T12:30:00;27.57;45.29
75010;DHT22;63564;46.840;18.336;2023-08-12T12:33:01;27.60;46.80
75010;DHT22;63564;46.840;18.336;2023-08-12T12:36:01;27.76;44.50
75010;DHT22;63564;46.840;18.336;2023-08-12T12:39:06;28.24;46.36
75010;DHT22;63564;46.840;18.336;2023-08-12T12:42:06;28.35;41.45
75010;DHT22;63564;46.840;18.336;2023-08-12T12:45:07;28.47;41.69
75010;DHT22;63564;46.840;18.336;2023-08-12T12:48:08;27.97;43.41
75010;DHT22;63564;46.840;18.336;2023-08-12T12:51:08;27.47;47.20
75010;DHT22;63564;46.840;18.336;2023-08-12T12:54:09;28.02;43.71
75010;DHT22;63564;46.840;18.336;2023-08-12T12:57:09;28.14;45.44
75010;DHT22;63564;46.840;18.336;2023-08-12T13:00:10;28.24;45.29
75010;DHT22;63564;46.840;18.336;2023-08-12T13:03:11;28.60;42.10
75010;DHT22;63564;46.840;18.336;2023-08-12T13:06:12;29.15;41.09
75010;DHT22;63564;46.840;18.336;2023-08-12T13:09:12;29.47;40.80
75010;DHT22;63564;46.840;18.336;2023-08-12T13:12:13;30.45;38.70
75010;DHT22;63564;46.840;18.336;2023-08-12T13:15:13;31.27;36.60
75010;DHT22;63564;46.840;18.336;2023-08-12T13:18:13;31.64;36.03
75010;DHT22;63564;46.840;18.336;2023-08-12T13:21:14;30.95;38.38
75010;DHT22;63564;46.840;18.336;2023-08-12T13:24:14;31.30;38.69
75010;DHT22;63564;46.840;18.336;2023-08-12T13:27:15;31.85;36.96
75010;DHT22;63564;46.840;18.336;2023-08-12T13:30:17;32.37;34.79
75010;DHT22;63564;46.840;18.336;2023-08-12T13:33:18;30.67;38.57
75010;DHT22;63564;46.840;18.336;2023-08-12T13:36:18;30.20;43.05
75010;DHT22;63564;46.840;18.336;2023-08-12T13:39:18;29.42;41.38
75010;DHT22;63564;46.840;18.336;2023-08-12T13:42:19;29.20;44.00
75010;DHT22;63564;46.840;18.336;2023-08-12T13:45:19;29.95;39.53
75010;DHT22;63564;46.840;18.336;2023-08-12T13:48:20;29.76;39.95
75010;DHT22;63564;46.840;18.336;2023-08-12T13:51:20;29.13;42.57
75010;DHT22;63564;46.840;18.336;2023-08-12T13:54:20;29.07;40.57
75010;DHT22;63564;46.840;18.336;2023-08-12T13:57:21;28.83;42.80
75010;DHT22;63564;46.840;18.336;2023-08-12T14:00:23;29.25;40.76
75010;DHT22;63564;46.840;18.336;2023-08-12T14:03:24;29.80;41.51
75010;DHT22;63564;46.840;18.336;2023-08-12T14:06:25;30.18;39.54
75010;DHT22;63564;46.840;18.336;2023-08-12T14:09:25;30.41;39.08
75010;DHT22;63564;46.840;18.336;2023-08-12T14:12:26;30.93;38.22
75010;DHT22;63564;46.840;18.336;2023-08-12T14:15:26;31.20;38.62
75010;DHT22;63564;46.840;18.336;2023-08-12T14:18:27;31.84;35.24
75010;DHT22;63564;46.840;18.336;2023-08-12T14:21:27;32.84;35.42
75010;DHT22;63564;46.840;18.336;2023-08-12T14:24:27;32.81;35.65
75010;DHT22;63564;46.840;18.336;2023-08-12T14:27:28;33.49;34.63
75010;DHT22;63564;46.840;18.336;2023-08-12T14:30:28;32.63;37.77
75010;DHT22;63564;46.840;18.336;2023-08-12T14:33:29;33.92;32.87
75010;DHT22;63564;46.840;18.336;2023-08-12T14:36:29;32.79;37.18
75010;DHT22;63564;46.840;18.336;2023-08-12T14:39:30;31.99;40.35
75010;DHT22;63564;46.840;18.336;2023-08-12T14:42:30;29.37;43.40
75010;DHT22;63564;46.840;18.336;2023-08-12T14:45:30;29.25;40.82
75010;DHT22;63564;46.840;18.336;2023-08-12T14:48:31;29.25;40.33
75010;DHT22;63564;46.840;18.336;2023-08-12T14:51:31;28.90;41.42
75010;DHT22;63564;46.840;18.336;2023-08-12T14:54:32;28.22;41.36
75010;DHT22;63564;46.840;18.336;2023-08-12T14:57:34;28.80;40.47
75010;DHT22;63564;46.840;18.336;2023-08-12T15:00:34;28.04;42.29
75010;DHT22;63564;46.840;18.336;2023-08-12T15:03:34;28.04;41.51
75010;DHT22;63564;46.840;18.336;2023-08-12T15:06:35;28.21;44.03
75010;DHT22;63564;46.840;18.336;2023-08-12T15:09:35;28.20;42.14
75010;DHT22;63564;46.840;18.336;2023-08-12T15:12:35;27.84;43.59
75010;DHT22;63564;46.840;18.336;2023-08-12T15:15:36;27.76;42.87
75010;DHT22;63564;46.840;18.336;2023-08-12T15:18:36;27.57;43.31
75010;DHT22;63564;46.840;18.336;2023-08-12T15:21:37;27.55;44.73
75010;DHT22;63564;46.840;18.336;2023-08-12T15:24:37;27.35;46.79
75010;DHT22;63564;46.840;18.336;2023-08-12T15:27:37;27.11;46.58
75010;DHT22;63564;46.840;18.336;2023-08-12T15:30:38;27.02;44.75
75010;DHT22;63564;46.840;18.336;2023-08-12T15:33:39;27.14;45.44
75010;DHT22;63564;46.840;18.336;2023-08-12T15:36:39;26.94;47.79
75010;DHT22;63564;46.840;18.336;2023-08-12T15:39:41;26.98;47.66
75010;DHT22;63564;46.840;18.336;2023-08-12T15:42:41;27.08;45.79
75010;DHT22;63564;46.840;18.336;2023-08-12T15:45:42;27.02;47.07
75010;DHT22;63564;46.840;18.336;2023-08-12T15:48:42;27.07;45.62
75010;DHT22;63564;46.840;18.336;2023-08-12T15:51:43;27.08;46.34
75010;DHT22;63564;46.840;18.336;2023-08-12T15:54:43;27.05;49.37
75010;DHT22;63564;46.840;18.336;2023-08-12T15:57:43;26.74;45.32
75010;DHT22;63564;46.840;18.336;2023-08-12T16:00:47;26.54;46.63
75010;DHT22;63564;46.840;18.336;2023-08-12T16:03:48;26.57;45.04
75010;DHT22;63564;46.840;18.336;2023-08-12T16:06:49;26.61;45.27
75010;DHT22;63564;46.840;18.336;2023-08-12T16:09:49;26.23;49.20
75010;DHT22;63564;46.840;18.336;2023-08-12T16:12:49;26.26;49.45
75010;DHT22;63564;46.840;18.336;2023-08-12T16:15:50;26.36;48.95
75010;DHT22;63564;46.840;18.336;2023-08-12T16:18:50;26.35;51.42
75010;DHT22;63564;46.840;18.336;2023-08-12T16:21:51;26.09;49.89
75010;DHT22;63564;46.840;18.336;2023-08-12T16:24:51;26.06;51.43
75010;DHT22;63564;46.840;18.336;2023-08-12T16:27:51;25.96;52.53
75010;DHT22;63564;46.840;18.336;2023-08-12T16:30:52;25.82;52.20
75010;DHT22;63564;46.840;18.336;2023-08-12T16:33:53;25.89;51.98
75010;DHT22;63564;46.840;18.336;2023-08-12T16:36:53;25.84;53.00
75010;DHT22;63564;46.840;18.336;2023-08-12T16:39:54;25.63;54.77
75010;DHT22;63564;46.840;18.336;2023-08-12T16:42:54;25.53;55.62
75010;DHT22;63564;46.840;18.336;2023-08-12T16:45:54;25.40;56.73
75010;DHT22;63564;46.840;18.336;2023-08-12T16:48:55;25.30;57.56
75010;DHT22;63564;46.840;18.336;2023-08-12T16:51:55;25.24;55.37
75010;DHT22;63564;46.840;18.336;2023-08-12T16:54:55;25.16;56.44
75010;DHT22;63564;46.840;18.336;2023-08-12T16:57:56;25.09;57.28
75010;DHT22;63564;46.840;18.336;2023-08-12T17:00:56;25.09;58.39
75010;DHT22;63564;46.840;18.336;2023-08-12T17:03:57;24.92;56.93
75010;DHT22;63564;46.840;18.336;2023-08-12T17:06:57;24.85;55.03
75010;DHT22;63564;46.840;18.336;2023-08-12T17:09:58;24.89;54.31
75010;DHT22;63564;46.840;18.336;2023-08-12T17:12:58;24.86;54.10
75010;DHT22;63564;46.840;18.336;2023-08-12T17:15:59;24.82;55.91
75010;DHT22;63564;46.840;18.336;2023-08-12T17:18:59;24.68;56.56
75010;DHT22;63564;46.840;18.336;2023-08-12T17:22:00;24.64;57.05
75010;DHT22;63564;46.840;18.336;2023-08-12T17:25:01;24.51;57.06
75010;DHT22;63564;46.840;18.336;2023-08-12T17:28:05;24.44;57.45
75010;DHT22;63564;46.840;18.336;2023-08-12T17:31:05;24.38;58.86
75010;DHT22;63564;46.840;18.336;2023-08-12T17:34:06;24.36;58.95
75010;DHT22;63564;46.840;18.336;2023-08-12T17:37:06;24.00;59.65
75010;DHT22;63564;46.840;18.336;2023-08-12T17:40:07;23.90;59.01
75010;DHT22;63564;46.840;18.336;2023-08-12T17:43:10;23.90;59.12
75010;DHT22;63564;46.840;18.336;2023-08-12T17:46:11;23.82;60.20
75010;DHT22;63564;46.840;18.336;2023-08-12T17:49:14;23.59;60.20
75010;DHT22;63564;46.840;18.336;2023-08-12T17:52:14;23.40;61.01
75010;DHT22;63564;46.840;18.336;2023-08-12T17:55:15;23.32;62.11
75010;DHT22;63564;46.840;18.336;2023-08-12T17:58:15;23.23;62.50
75010;DHT22;63564;46.840;18.336;2023-08-12T18:01:16;23.06;60.98
75010;DHT22;63564;46.840;18.336;2023-08-12T18:04:16;23.00;60.58
75010;DHT22;63564;46.840;18.336;2023-08-12T18:07:16;22.99;60.16
75010;DHT22;63564;46.840;18.336;2023-08-12T18:10:17;22.72;60.60
75010;DHT22;63564;46.840;18.336;2023-08-12T18:13:17;22.51;61.40
75010;DHT22;63564;46.840;18.336;2023-08-12T18:16:18;22.59;61.21
75010;DHT22;63564;46.840;18.336;2023-08-12T18:19:18;22.60;61.54
75010;DHT22;63564;46.840;18.336;2023-08-12T18:22:18;22.49;61.46
75010;DHT22;63564;46.840;18.336;2023-08-12T18:25:19;22.35;61.66
75010;DHT22;63564;46.840;18.336;2023-08-12T18:28:19;22.24;61.81
75010;DHT22;63564;46.840;18.336;2023-08-12T18:31:20;22.08;62.36
75010;DHT22;63564;46.840;18.336;2023-08-12T18:34:20;22.11;62.50
75010;DHT22;63564;46.840;18.336;2023-08-12T18:37:20;21.97;62.84
75010;DHT22;63564;46.840;18.336;2023-08-12T18:40:21;21.74;63.59
75010;DHT22;63564;46.840;18.336;2023-08-12T18:43:21;21.70;64.13
75010;DHT22;63564;46.840;18.336;2023-08-12T18:46:22;21.79;63.38